Arlington, VA (22204)

8:39 AM EDT on August 05, 2015 (GMT -0400)
Douglas Park | | Change Station
CLOSE
Current Station
Personal Weather Station
Location: Arlington, VA
Elevation: 223 ft
Nearby Weather Stations

Elev 223 ft 38.86 °N, 77.09 °W | Updated 4 minutes ago

Partly Cloudy
Partly Cloudy
74.6 °F
Feels Like 74 °F
N
2.0
Wind Variable Wind from West
Gusts 3.0 mph

Today
High -- | Low -- °F
--% Chance of Precip.
Yesterday
High -- | Low -- °F
Precip. -- in
6:12 AM 8:15 PM
Waning Gibbous, 67% visible
Pressure 29.97 in
Visibility 10.0 miles
Clouds Few 6000 ft
Scattered Clouds 15000 ft
Mostly Cloudy 22000 ft
Heat Index 74 °F
Dew Point 70 °F
Humidity 86%
Rainfall 0.00 in
Snow Depth Not available.
UV 1 out of 12
Pollen 8.40 out of 12
Air Quality Not available.
Flu Activity Not available.
METAR KDCA 051152Z 00000KT 10SM FEW060 SCT150 BKN220 24/20 A2997 RMK AO2 SLP148 70004 T02440200 10256 20239 53011

More Conditions Fewer Conditions

Pressure 29.97 in
Visibility 10.0 miles
Clouds Few 6000 ft
Scattered Clouds 15000 ft
Mostly Cloudy 22000 ft
Heat Index 74 °F
Dew Point 70 °F
Humidity 86%
Rainfall 0.00 in
Snow Depth Not available.
UV 1 out of 12
Pollen 8.40 out of 12
Air Quality Not available.
Flu Activity Not available.
METAR KDCA 051152Z 00000KT 10SM FEW060 SCT150 BKN220 24/20 A2997 RMK AO2 SLP148 70004 T02440200 10256 20239 53011

More Conditions Fewer Conditions

10-Day Weather Forecast

×

Almanac

Astronomy

Aug. 05, 2015 Rise Set
Actual Time
Civil Twilight
Nautical Twilight
Astronomical Twilight
Moon
Length of Visible Light
Length of Day
Tomorrow will be .
, % of the Moon is Illuminated

Today's Extremes

State Highs State Lows

Community

WunderPhotos

Upload Photos

1,844,170 photos uploaded!

WunderBlogs® & News

Nearby

Air Quality

  Air Quality AQ Index Pollutant
Not available.

Snow Depth

Station Depth Elevation

Earthquake Activity

City Distance Mag. Time & Date
Minimum magnitude displayed is 2.5.

Coastal Water Temperatures

Place Temperature

Stations

Nearby Weather Stations

Station Location Temp. Windchill Dew Point Humidity Wind Precip. Elev Updated Type